createdAt,value
2022-11-10T07:49:20.152Z,1017.34
2022-11-10T07:50:19.915Z,1017.38
2022-11-10T07:51:20.808Z,1017.39
2022-11-10T07:52:19.928Z,1017.44
2022-11-10T07:53:21.832Z,1017.45
2022-11-10T07:55:45.236Z,1017.38
2022-11-10T07:58:18.866Z,1017.43
2022-11-10T08:01:21.444Z,1017.49
2022-11-10T08:02:29.151Z,1017.49
2022-11-10T08:03:30.038Z,1017.51
2022-11-10T08:04:30.016Z,1017.57
2022-11-10T08:05:29.959Z,1017.63
2022-11-10T08:06:33.511Z,1017.62
2022-11-10T08:08:14.523Z,1017.70
2022-11-10T08:11:37.210Z,1017.62
2022-11-10T08:12:45.259Z,1017.69
2022-11-10T08:14:47.564Z,1017.71
2022-11-10T08:16:57.761Z,1017.74
2022-11-10T08:17:57.909Z,1017.78
2022-11-10T08:19:06.468Z,1017.81
2022-11-10T08:21:08.736Z,1017.69
2022-11-10T08:22:18.365Z,1017.71
2022-11-10T08:25:33.206Z,1017.69
2022-11-10T08:27:40.961Z,1017.78
2022-11-10T08:29:52.188Z,1017.75
2022-11-10T08:30:52.085Z,1017.73
2022-11-10T08:33:03.454Z,1017.79
2022-11-10T08:34:11.010Z,1017.87
2022-11-10T08:36:13.830Z,1017.87
2022-11-10T08:37:13.710Z,1017.93
2022-11-10T08:38:22.374Z,1017.86
2022-11-10T08:40:25.123Z,1017.91
2022-11-10T08:41:25.040Z,1017.91
2022-11-10T08:42:33.919Z,1017.95
2022-11-10T08:44:35.570Z,1018.01
2022-11-10T08:45:35.369Z,1018.05
2022-11-10T08:46:35.492Z,1018.05
2022-11-10T08:48:46.757Z,1018.12
2022-11-10T08:49:57.329Z,1018.14
2022-11-10T08:50:55.236Z,1018.21
2022-11-10T08:52:58.029Z,1018.22
2022-11-10T08:55:08.313Z,1018.30
2022-11-10T08:56:08.285Z,1018.30
2022-11-10T08:57:08.237Z,1018.35
2022-11-10T08:58:08.224Z,1018.30
2022-11-10T08:59:08.196Z,1018.36
2022-11-10T09:00:08.248Z,1018.39
2022-11-10T09:01:15.845Z,1018.39
2022-11-10T09:02:08.215Z,1018.43
2022-11-10T09:03:08.293Z,1018.42
2022-11-10T09:04:08.263Z,1018.39
2022-11-10T09:05:08.144Z,1018.42
2022-11-10T09:06:08.121Z,1018.52
2022-11-10T09:07:08.180Z,1018.52
2022-11-10T09:08:08.130Z,1018.49
2022-11-10T09:09:08.091Z,1018.51
2022-11-10T09:10:08.414Z,1018.50
2022-11-10T09:11:08.074Z,1018.49
2022-11-10T09:12:08.113Z,1018.54
2022-11-10T09:13:08.045Z,1018.59
2022-11-10T09:14:08.051Z,1018.55
2022-11-10T09:15:08.028Z,1018.57
2022-11-10T09:16:08.032Z,1018.60
2022-11-10T09:17:08.001Z,1018.62
2022-11-10T09:18:08.007Z,1018.62
2022-11-10T09:19:07.984Z,1018.59
2022-11-10T09:20:08.110Z,1018.50
2022-11-10T09:21:07.974Z,1018.50
2022-11-10T09:22:16.192Z,1018.53
2022-11-10T09:23:16.559Z,1018.61
2022-11-10T09:24:17.572Z,1018.56
2022-11-10T09:25:07.998Z,1018.61
2022-11-10T09:26:16.547Z,1018.62
2022-11-10T09:27:15.526Z,1018.67
2022-11-10T09:28:07.964Z,1018.70
2022-11-10T09:29:07.923Z,1018.70
2022-11-10T09:30:10.641Z,1018.67
2022-11-10T09:31:08.929Z,1018.69
2022-11-10T09:32:15.453Z,1018.73
2022-11-10T09:33:08.118Z,1018.64
2022-11-10T09:34:07.855Z,1018.69
2022-11-10T09:35:16.712Z,1018.59
2022-11-10T09:36:07.866Z,1018.61
2022-11-10T09:37:07.872Z,1018.66
2022-11-10T09:38:15.376Z,1018.68
2022-11-10T09:39:15.434Z,1018.72
2022-11-10T09:40:12.641Z,1018.75
2022-11-10T09:41:08.804Z,1018.79
2022-11-10T09:42:07.740Z,1018.81
2022-11-10T09:43:07.778Z,1018.90
2022-11-10T09:44:07.738Z,1018.87
2022-11-10T09:45:07.700Z,1018.87
2022-11-10T09:46:07.703Z,1018.86
2022-11-10T09:47:07.682Z,1018.85
2022-11-10T09:48:07.662Z,1018.90
2022-11-10T09:49:07.682Z,1018.87
2022-11-10T09:50:07.648Z,1018.88
2022-11-10T09:51:07.650Z,1018.89
2022-11-10T09:52:15.225Z,1018.87
2022-11-10T09:53:16.197Z,1018.91
2022-11-10T09:55:17.981Z,1018.84
2022-11-10T09:57:28.349Z,1018.86
2022-11-10T09:58:37.981Z,1018.77
2022-11-10T09:59:28.290Z,1018.80
2022-11-10T10:00:35.842Z,1018.80
2022-11-10T10:01:37.039Z,1018.85
2022-11-10T10:02:35.874Z,1018.84
2022-11-10T10:04:51.884Z,1018.87
2022-11-10T10:07:05.325Z,1018.86
2022-11-10T10:07:58.162Z,1018.86
2022-11-10T10:08:56.603Z,1018.85
2022-11-10T10:09:56.440Z,1018.86
2022-11-10T10:10:47.893Z,1018.96
2022-11-10T10:11:56.663Z,1018.98
2022-11-10T10:12:55.395Z,1018.93
2022-11-10T10:13:47.834Z,1018.84
2022-11-10T10:14:47.897Z,1018.91
2022-11-10T10:15:55.407Z,1018.85
2022-11-10T10:16:47.821Z,1018.92
2022-11-10T10:17:56.353Z,1018.88
2022-11-10T10:18:55.350Z,1018.94
2022-11-10T10:19:55.297Z,1018.98
2022-11-10T10:20:55.609Z,1019.06
2022-11-10T10:21:47.780Z,1018.99
2022-11-10T10:22:56.401Z,1019.01
2022-11-10T10:24:09.445Z,1018.98
2022-11-10T10:24:48.781Z,1019.07
2022-11-10T10:25:55.313Z,1019.10
2022-11-10T10:26:47.752Z,1019.03
2022-11-10T10:27:55.246Z,1019.07
2022-11-10T10:28:56.531Z,1019.02
2022-11-10T10:29:55.225Z,1019.10
2022-11-10T10:30:56.285Z,1019.06
2022-11-10T10:31:55.197Z,1019.10
2022-11-10T10:33:58.047Z,1019.13
2022-11-10T10:35:05.572Z,1019.11
2022-11-10T10:36:05.524Z,1019.11
2022-11-10T10:38:09.367Z,1019.11
2022-11-10T10:39:18.015Z,1019.15
2022-11-10T10:40:16.853Z,1019.17
2022-11-10T10:41:09.312Z,1019.17
2022-11-10T10:42:09.275Z,1019.19
2022-11-10T10:43:16.837Z,1019.17
2022-11-10T10:44:19.072Z,1019.16
2022-11-10T10:45:09.282Z,1019.21
2022-11-10T10:46:09.282Z,1019.14
2022-11-10T10:47:16.801Z,1019.17
2022-11-10T10:50:34.892Z,1019.10
2022-11-10T10:51:34.790Z,1019.08
2022-11-10T10:52:34.740Z,1019.11
2022-11-10T10:53:42.376Z,1018.99
2022-11-10T10:54:34.830Z,1019.14
2022-11-10T10:55:34.748Z,1019.09
2022-11-10T10:56:34.710Z,1019.08
2022-11-10T10:57:42.238Z,1019.04
2022-11-10T10:58:34.727Z,1019.14
2022-11-10T10:59:34.674Z,1019.20
2022-11-10T11:00:34.672Z,1019.13
2022-11-10T11:01:34.739Z,1019.14
2022-11-10T11:02:43.271Z,1019.13
2022-11-10T11:04:45.031Z,1019.19
2022-11-10T11:05:45.065Z,1019.15
2022-11-10T11:06:54.856Z,1019.22
2022-11-10T11:07:45.000Z,1019.18
2022-11-10T11:08:58.188Z,1019.15
2022-11-10T11:10:55.350Z,1019.19
2022-11-10T11:12:03.983Z,1019.23
2022-11-10T11:13:02.823Z,1019.25
2022-11-10T11:14:03.131Z,1019.24
2022-11-10T11:15:03.833Z,1019.23
2022-11-10T11:16:03.819Z,1019.19
2022-11-10T11:17:05.151Z,1019.23
2022-11-10T11:18:02.817Z,1019.25
2022-11-10T11:19:03.460Z,1019.25
2022-11-10T11:21:06.752Z,1019.24
2022-11-10T11:22:16.256Z,1019.23
2022-11-10T11:24:16.865Z,1019.23
2022-11-10T11:26:27.189Z,1019.22
2022-11-10T11:27:34.721Z,1019.15
2022-11-10T11:28:36.904Z,1019.14
2022-11-10T11:29:34.711Z,1019.17
2022-11-10T11:30:34.713Z,1019.12
2022-11-10T11:31:27.091Z,1019.16
2022-11-10T11:32:27.131Z,1019.15
2022-11-10T11:33:27.047Z,1019.10
2022-11-10T11:34:36.037Z,1019.14
2022-11-10T11:35:34.594Z,1019.13
2022-11-10T11:37:37.422Z,1019.16
2022-11-10T11:39:46.745Z,1019.12
2022-11-10T11:40:54.261Z,1019.11
2022-11-10T11:41:46.775Z,1019.14
2022-11-10T11:42:54.259Z,1019.21
2022-11-10T11:43:55.252Z,1019.20
2022-11-10T11:44:46.730Z,1019.25
2022-11-10T11:45:54.154Z,1019.25
2022-11-10T11:46:54.195Z,1019.30
2022-11-10T11:47:55.271Z,1019.24
2022-11-10T11:48:56.613Z,1019.27
2022-11-10T11:49:54.168Z,1019.18
2022-11-10T11:50:54.193Z,1019.29
2022-11-10T11:51:54.168Z,1019.27
2022-11-10T11:52:57.302Z,1019.28
2022-11-10T11:53:54.266Z,1019.26
2022-11-10T11:55:57.929Z,1019.32
2022-11-10T11:56:58.124Z,1019.18
2022-11-10T11:58:06.401Z,1019.28
2022-11-10T11:59:05.396Z,1019.33
2022-11-10T12:00:05.391Z,1019.35
2022-11-10T12:00:57.934Z,1019.25
2022-11-10T12:02:06.674Z,1019.27
2022-11-10T12:02:57.844Z,1019.22
2022-11-10T12:03:57.783Z,1019.26
2022-11-10T12:04:57.746Z,1019.29
2022-11-10T12:06:05.307Z,1019.30
2022-11-10T12:06:57.847Z,1019.28
2022-11-10T12:07:57.806Z,1019.24
2022-11-10T12:09:05.950Z,1019.31
2022-11-10T12:10:05.290Z,1019.29
2022-11-10T12:11:05.325Z,1019.33
2022-11-10T14:48:45.146Z,1020.81
2022-11-10T14:49:52.638Z,1020.84
2022-11-10T14:50:54.753Z,1020.81
2022-11-10T14:51:45.056Z,1020.80
2022-11-10T14:52:52.581Z,1020.91
2022-11-10T14:53:52.573Z,1020.85
2022-11-10T14:54:52.574Z,1020.90
2022-11-10T14:55:45.015Z,1020.95
2022-11-10T14:56:44.986Z,1020.91
2022-11-10T14:57:52.516Z,1020.90
2022-11-10T14:58:44.944Z,1020.92
2022-11-10T14:59:44.931Z,1020.88
2022-11-10T15:00:52.498Z,1020.91
2022-11-10T15:01:53.993Z,1020.98
2022-11-10T15:02:52.469Z,1020.97
2022-11-10T15:03:53.551Z,1021.03
2022-11-10T15:04:52.480Z,1021.03
2022-11-10T15:05:44.908Z,1021.10
2022-11-10T15:06:52.498Z,1021.11
2022-11-10T15:07:44.913Z,1021.15
2022-11-10T15:08:44.835Z,1021.11
2022-11-10T15:09:52.400Z,1021.14
2022-11-10T15:10:52.387Z,1021.13
2022-11-10T15:11:52.367Z,1021.13
2022-11-10T15:12:44.817Z,1021.14
2022-11-10T15:13:44.802Z,1021.17
2022-11-10T15:14:44.767Z,1021.17
2022-11-10T15:15:44.809Z,1021.15
2022-11-10T15:16:52.342Z,1021.16
2022-11-10T15:17:53.832Z,1021.20
2022-11-10T15:18:44.768Z,1021.14
2022-11-10T15:19:52.333Z,1021.21
2022-11-10T15:20:44.787Z,1021.11
2022-11-10T15:21:53.370Z,1021.19
2022-11-10T15:22:52.268Z,1021.13
2022-11-10T15:23:44.692Z,1021.13
2022-11-10T15:24:53.289Z,1021.19
2022-11-10T15:26:55.050Z,1021.24
2022-11-10T15:28:02.596Z,1021.21
2022-11-10T15:29:03.766Z,1021.22
2022-11-10T15:29:55.000Z,1021.27
2022-11-10T15:30:55.000Z,1021.36
2022-11-10T15:33:05.295Z,1021.32
2022-11-10T15:34:13.952Z,1021.28
2022-11-10T15:35:12.881Z,1021.33
2022-11-10T15:36:05.271Z,1021.32
2022-11-10T15:37:05.237Z,1021.27
2022-11-10T15:38:05.174Z,1021.33
2022-11-10T15:39:05.204Z,1021.33
2022-11-10T15:40:05.204Z,1021.38
2022-11-10T15:41:05.137Z,1021.35
2022-11-10T15:42:05.129Z,1021.36
2022-11-10T15:43:05.107Z,1021.43
2022-11-10T15:44:13.020Z,1021.45
2022-11-10T15:45:05.171Z,1021.41
2022-11-10T15:46:17.791Z,1021.46
2022-11-10T15:48:15.527Z,1021.46
2022-11-10T15:49:23.053Z,1021.43
2022-11-10T15:50:26.229Z,1021.44
2022-11-10T15:51:15.475Z,1021.40
2022-11-10T15:53:25.772Z,1021.42
2022-11-10T15:54:25.718Z,1021.31
2022-11-10T15:55:25.695Z,1021.34
2022-11-10T15:56:25.738Z,1021.32
2022-11-10T15:57:33.331Z,1021.34
2022-11-10T15:58:34.240Z,1021.33
2022-11-10T15:59:33.272Z,1021.30
2022-11-10T16:00:35.536Z,1021.28
2022-11-10T16:01:25.751Z,1021.33
2022-11-10T16:02:33.243Z,1021.29
2022-11-10T16:03:25.675Z,1021.26
2022-11-10T16:04:33.213Z,1021.30
2022-11-10T16:05:33.262Z,1021.27
2022-11-10T16:06:35.705Z,1021.27
2022-11-10T16:07:33.160Z,1021.37
2022-11-10T16:08:34.231Z,1021.29
2022-11-10T16:09:33.131Z,1021.28
2022-11-10T16:10:33.122Z,1021.31
2022-11-10T16:11:33.134Z,1021.31
2022-11-10T16:12:35.367Z,1021.34
2022-11-10T16:13:33.082Z,1021.31
2022-11-10T16:14:25.539Z,1021.33
2022-11-10T16:15:25.532Z,1021.32
2022-11-10T16:17:35.903Z,1021.28
2022-11-10T16:18:44.045Z,1021.35
2022-11-10T16:19:35.838Z,1021.35
2022-11-10T16:20:35.872Z,1021.37
2022-11-10T16:21:35.797Z,1021.38
2022-11-10T16:22:35.741Z,1021.39
2022-11-10T16:23:35.765Z,1021.41
2022-11-10T16:24:35.718Z,1021.40
2022-11-10T16:25:35.706Z,1021.42
2022-11-10T16:26:35.703Z,1021.44
2022-11-10T16:27:35.684Z,1021.42
2022-11-10T16:28:44.535Z,1021.43
2022-11-10T16:29:43.251Z,1021.45
2022-11-10T16:30:43.247Z,1021.51
2022-11-10T16:31:43.227Z,1021.50
2022-11-10T16:32:43.244Z,1021.58
2022-11-10T16:33:35.698Z,1021.66
2022-11-10T16:34:35.704Z,1021.67
2022-11-10T16:35:35.616Z,1021.72
2022-11-10T16:36:35.703Z,1021.74
2022-11-10T16:37:35.574Z,1021.76
2022-11-10T16:38:35.569Z,1021.79
2022-11-10T16:39:35.564Z,1021.86
2022-11-10T16:40:35.590Z,1021.85
2022-11-10T16:41:35.530Z,1021.88
2022-11-10T16:42:35.534Z,1021.89
2022-11-10T16:43:35.511Z,1021.89
2022-11-10T16:44:38.759Z,1021.88
2022-11-10T16:45:36.504Z,1021.96
2022-11-10T16:46:35.491Z,1021.98
2022-11-10T16:47:35.466Z,1021.91
2022-11-10T16:48:35.497Z,1021.96
2022-11-10T16:49:35.452Z,1021.98
2022-11-10T16:50:35.446Z,1022.04
2022-11-10T16:51:35.434Z,1021.98
2022-11-10T16:52:35.518Z,1021.93
2022-11-10T16:53:35.400Z,1021.89
2022-11-10T16:54:35.391Z,1021.93
2022-11-10T16:55:35.425Z,1021.92
2022-11-10T16:56:35.387Z,1021.96
2022-11-10T16:57:39.796Z,1021.94
2022-11-10T16:58:35.347Z,1021.95
2022-11-10T16:59:35.341Z,1022.00
2022-11-10T17:00:35.334Z,1021.92
2022-11-10T17:01:35.428Z,1021.90
2022-11-10T17:02:35.310Z,1021.96
2022-11-10T17:03:35.295Z,1021.94
2022-11-10T17:04:35.280Z,1021.92
2022-11-10T17:05:35.271Z,1021.91
2022-11-10T17:06:35.319Z,1022.00
2022-11-10T17:07:35.243Z,1021.90
2022-11-10T17:08:35.345Z,1021.94
2022-11-10T17:09:35.227Z,1022.00
2022-11-10T17:10:35.216Z,1022.03
2022-11-10T17:11:35.208Z,1022.03
2022-11-10T17:12:35.218Z,1022.05
2022-11-10T17:13:35.195Z,1022.02
2022-11-10T17:14:35.185Z,1022.07
2022-11-10T17:15:35.164Z,1022.09
2022-11-10T17:16:35.157Z,1022.16
2022-11-10T17:17:35.139Z,1022.14
2022-11-10T17:18:35.161Z,1022.21
2022-11-10T17:19:35.135Z,1022.17
2022-11-10T17:20:35.119Z,1022.15
2022-11-10T17:21:35.122Z,1022.19
2022-11-10T17:22:35.091Z,1022.19
2022-11-10T17:23:35.151Z,1022.22
2022-11-10T17:24:35.190Z,1022.28
2022-11-10T17:25:35.103Z,1022.26
2022-11-10T17:26:35.048Z,1022.34
2022-11-10T17:27:37.950Z,1022.43
2022-11-10T17:28:35.057Z,1022.45
2022-11-10T17:29:35.008Z,1022.46
2022-11-10T17:30:35.016Z,1022.57
2022-11-10T17:31:34.997Z,1022.58
2022-11-10T17:33:03.025Z,1022.58
2022-11-10T17:33:35.982Z,1022.54
2022-11-10T17:34:34.961Z,1022.61
2022-11-10T17:35:40.105Z,1022.57
2022-11-10T17:36:35.945Z,1022.55
2022-11-10T17:37:34.937Z,1022.59
2022-11-10T17:38:34.923Z,1022.55
2022-11-10T17:39:34.915Z,1022.56
2022-11-10T17:40:35.012Z,1022.58
2022-11-10T17:41:34.884Z,1022.54
2022-11-10T17:42:34.876Z,1022.51
2022-11-10T17:43:34.867Z,1022.48
2022-11-10T17:44:34.855Z,1022.46
2022-11-10T17:45:34.868Z,1022.47
2022-11-10T17:46:34.838Z,1022.48
2022-11-10T17:47:34.833Z,1022.49
2022-11-10T17:48:34.819Z,1022.48
2022-11-10T17:49:34.799Z,1022.51
2022-11-10T17:50:34.802Z,1022.49
2022-11-10T17:51:34.771Z,1022.57
2022-11-10T17:52:34.760Z,1022.58
2022-11-10T17:53:34.761Z,1022.61
2022-11-10T17:54:34.741Z,1022.63
2022-11-10T17:55:34.779Z,1022.61
2022-11-10T17:56:34.836Z,1022.62
2022-11-10T17:57:34.712Z,1022.59
2022-11-10T17:58:34.717Z,1022.62
2022-11-10T17:59:34.697Z,1022.61
2022-11-10T18:00:34.695Z,1022.62
2022-11-10T18:01:34.724Z,1022.63
2022-11-10T18:02:34.663Z,1022.63
2022-11-10T18:03:34.656Z,1022.60
2022-11-10T18:04:34.640Z,1022.63
2022-11-10T18:05:34.640Z,1022.62
2022-11-10T18:06:43.769Z,1022.66
2022-11-10T18:07:42.173Z,1022.65
2022-11-10T18:08:34.704Z,1022.60
2022-11-10T18:09:34.649Z,1022.66
2022-11-10T18:10:34.592Z,1022.58
2022-11-10T18:11:34.559Z,1022.63
2022-11-10T18:12:34.703Z,1022.56
2022-11-10T18:13:34.557Z,1022.59
2022-11-10T18:14:34.541Z,1022.51
2022-11-10T18:15:34.525Z,1022.51
2022-11-10T18:16:34.534Z,1022.44
2022-11-10T18:17:34.505Z,1022.43
2022-11-10T18:18:34.528Z,1022.42
2022-11-10T18:19:34.495Z,1022.47
2022-11-10T18:20:42.060Z,1022.46
2022-11-10T18:21:34.521Z,1022.44
2022-11-10T18:22:34.490Z,1022.47
2022-11-10T18:23:34.436Z,1022.50
2022-11-10T18:24:34.428Z,1022.50
2022-11-10T18:25:34.413Z,1022.55
2022-11-10T18:26:34.411Z,1022.58
2022-11-10T18:27:34.412Z,1022.56
2022-11-10T18:28:34.493Z,1022.57
2022-11-10T18:29:34.375Z,1022.58
2022-11-10T18:30:35.397Z,1022.57
2022-11-10T18:31:34.359Z,1022.57
2022-11-10T18:32:34.345Z,1022.61
2022-11-10T18:33:34.333Z,1022.62
2022-11-10T18:34:34.320Z,1022.61
2022-11-10T18:35:34.312Z,1022.59
2022-11-10T18:36:34.332Z,1022.62
2022-11-10T18:37:38.780Z,1022.61
2022-11-10T18:38:34.273Z,1022.58
2022-11-10T18:39:34.258Z,1022.60
2022-11-10T18:40:34.246Z,1022.63
2022-11-10T18:41:34.239Z,1022.66
2022-11-10T18:42:34.249Z,1022.65
2022-11-10T18:43:34.225Z,1022.64
2022-11-10T18:44:34.344Z,1022.66
2022-11-10T18:45:34.238Z,1022.66
2022-11-10T18:46:34.191Z,1022.64
2022-11-10T18:47:34.197Z,1022.68
2022-11-10T18:48:37.263Z,1022.72
2022-11-10T18:49:34.170Z,1022.71
2022-11-10T18:50:34.161Z,1022.73
2022-11-10T18:51:34.127Z,1022.70
2022-11-10T18:52:34.128Z,1022.69
2022-11-10T18:53:38.044Z,1022.78
2022-11-10T18:54:34.112Z,1022.74
2022-11-10T18:55:34.089Z,1022.73
2022-11-10T18:56:34.098Z,1022.76
2022-11-10T18:57:34.067Z,1022.75
2022-11-10T18:58:34.094Z,1022.80
2022-11-10T18:59:34.048Z,1022.78
2022-11-10T19:00:34.156Z,1022.77
2022-11-10T19:01:34.100Z,1022.83
2022-11-10T19:02:34.023Z,1022.78
2022-11-10T19:03:34.012Z,1022.84
2022-11-10T19:04:34.005Z,1022.84
2022-11-10T19:05:33.988Z,1022.84
2022-11-10T19:06:34.028Z,1022.81
2022-11-10T19:07:34.008Z,1022.83
2022-11-10T19:08:33.951Z,1022.83
2022-11-10T19:09:33.968Z,1022.85
2022-11-10T19:10:42.567Z,1022.79
2022-11-10T19:11:34.000Z,1022.82
2022-11-10T19:12:33.959Z,1022.86
2022-11-10T19:13:33.891Z,1022.89
2022-11-10T19:14:34.005Z,1022.92
2022-11-10T19:15:33.908Z,1023.00
2022-11-10T19:16:33.993Z,1022.97
2022-11-10T19:17:33.852Z,1022.97
2022-11-10T19:18:33.829Z,1023.03
2022-11-10T19:19:33.825Z,1022.96
2022-11-10T19:20:33.849Z,1023.00
2022-11-10T19:21:33.816Z,1022.97
2022-11-10T19:22:33.802Z,1023.03
2022-11-10T19:23:33.786Z,1022.96
2022-11-10T19:24:53.771Z,1022.94
2022-11-10T19:25:34.757Z,1022.96
2022-11-10T19:26:33.758Z,1022.94
2022-11-10T19:27:33.737Z,1022.97
2022-11-10T19:28:33.734Z,1022.96
2022-11-10T19:29:33.746Z,1023.02
2022-11-10T19:30:33.704Z,1023.02
2022-11-10T19:31:33.708Z,1023.07
2022-11-10T19:32:34.488Z,1023.03
2022-11-10T19:34:50.047Z,1023.02
2022-11-10T19:35:49.955Z,1023.03
2022-11-10T19:36:49.922Z,1023.07
2022-11-10T19:37:49.921Z,1023.03
2022-11-10T19:38:49.919Z,1022.96
2022-11-10T19:39:49.936Z,1022.93
2022-11-10T19:40:49.890Z,1022.92
2022-11-10T19:41:49.891Z,1022.93
2022-11-10T19:42:49.857Z,1022.89
2022-11-10T19:43:49.844Z,1022.90
2022-11-10T19:44:49.867Z,1022.89
2022-11-10T19:45:49.820Z,1022.92
2022-11-10T19:46:49.839Z,1022.92
2022-11-10T19:47:49.920Z,1022.94
2022-11-10T19:48:49.822Z,1022.91
2022-11-10T19:49:49.791Z,1022.94
2022-11-10T19:50:49.806Z,1022.90
2022-11-10T19:51:49.752Z,1022.92
2022-11-10T19:52:49.765Z,1022.87
2022-11-10T19:53:49.729Z,1022.93
2022-11-10T19:54:49.722Z,1022.95
2022-11-10T19:55:49.719Z,1022.99
2022-11-10T19:56:49.710Z,1022.98
2022-11-10T19:57:49.720Z,1023.02
2022-11-10T19:58:49.680Z,1022.99
2022-11-10T19:59:49.673Z,1023.03
2022-11-10T20:00:49.662Z,1022.96
2022-11-10T20:01:49.697Z,1023.01
2022-11-10T20:02:49.647Z,1022.97
2022-11-10T20:03:49.750Z,1022.99
2022-11-10T20:04:49.613Z,1022.98
2022-11-10T20:05:49.610Z,1023.05
2022-11-10T20:06:49.628Z,1022.97
2022-11-10T20:07:49.599Z,1023.03
2022-11-10T20:08:49.576Z,1023.12
2022-11-10T20:09:49.576Z,1023.09
2022-11-10T20:10:59.139Z,1023.11
2022-11-10T20:11:57.131Z,1023.11
2022-11-10T20:12:49.589Z,1023.10
2022-11-10T20:13:57.135Z,1023.11
2022-11-10T20:14:49.580Z,1023.11
2022-11-10T20:15:49.525Z,1023.08
2022-11-10T20:16:49.527Z,1023.12
2022-11-10T20:17:49.474Z,1023.17
2022-11-10T20:18:49.473Z,1023.22
2022-11-10T20:19:49.568Z,1023.22
2022-11-10T20:20:49.546Z,1023.21
2022-11-10T20:21:49.448Z,1023.19
2022-11-10T20:22:49.443Z,1023.20
2022-11-10T20:23:49.442Z,1023.26
2022-11-10T20:24:51.252Z,1023.28
2022-11-10T20:25:49.405Z,1023.34
2022-11-10T20:26:49.383Z,1023.36
2022-11-10T20:27:49.379Z,1023.39
2022-11-10T20:28:49.384Z,1023.35
2022-11-10T20:29:49.365Z,1023.38
2022-11-10T20:30:49.380Z,1023.33
2022-11-10T20:31:49.327Z,1023.46
2022-11-10T20:32:49.330Z,1023.42
2022-11-10T20:33:49.336Z,1023.42
2022-11-10T20:34:59.330Z,1023.47
2022-11-10T20:35:49.344Z,1023.50
2022-11-10T20:36:49.335Z,1023.51
2022-11-10T20:37:49.271Z,1023.57
2022-11-10T20:38:49.287Z,1023.53
2022-11-10T20:39:49.261Z,1023.54
2022-11-10T20:40:49.249Z,1023.59
2022-11-10T20:41:49.239Z,1023.62
2022-11-10T20:42:49.213Z,1023.64
2022-11-10T20:43:49.246Z,1023.68
2022-11-10T20:44:49.220Z,1023.67
2022-11-10T20:45:49.182Z,1023.61
2022-11-10T20:46:54.412Z,1023.55
2022-11-10T20:47:50.219Z,1023.59
2022-11-10T20:48:49.147Z,1023.65
2022-11-10T20:49:49.154Z,1023.65
2022-11-10T20:50:49.255Z,1023.62
2022-11-10T20:51:49.152Z,1023.64
2022-11-10T20:52:49.108Z,1023.63
2022-11-10T20:53:49.100Z,1023.62
2022-11-10T20:54:49.079Z,1023.65
2022-11-10T20:55:53.855Z,1023.65
2022-11-10T20:56:50.085Z,1023.69
2022-11-10T20:57:49.061Z,1023.71
2022-11-10T20:58:49.066Z,1023.71
2022-11-10T20:59:49.037Z,1023.81
2022-11-10T21:00:49.030Z,1023.74
2022-11-10T21:01:49.037Z,1023.77
2022-11-10T21:02:49.015Z,1023.88
2022-11-10T21:03:49.062Z,1023.83
2022-11-10T21:04:48.974Z,1023.80
2022-11-10T21:05:48.988Z,1023.83
2022-11-10T21:06:49.115Z,1023.85
2022-11-10T21:07:48.978Z,1023.93
2022-11-10T21:08:48.935Z,1023.90
2022-11-10T21:09:57.755Z,1023.91
2022-11-10T21:10:48.946Z,1023.92
2022-11-10T21:11:48.943Z,1023.95
2022-11-10T21:12:48.891Z,1023.94
2022-11-10T21:13:48.930Z,1023.95
2022-11-10T21:14:48.887Z,1023.92
2022-11-10T21:15:48.888Z,1023.96
2022-11-10T21:16:48.854Z,1023.86
2022-11-10T21:17:48.835Z,1023.88
2022-11-10T21:18:48.886Z,1023.88
2022-11-10T21:19:48.819Z,1023.84
2022-11-10T21:20:48.809Z,1023.86
2022-11-10T21:21:48.795Z,1023.79
2022-11-10T21:22:48.896Z,1023.81
2022-11-10T21:23:48.807Z,1023.83
2022-11-10T21:24:48.776Z,1023.79
2022-11-10T21:25:48.752Z,1023.88
2022-11-10T21:26:48.736Z,1023.82
2022-11-10T21:27:48.729Z,1023.80
2022-11-10T21:28:48.729Z,1023.80
2022-11-10T21:29:48.724Z,1023.86
2022-11-10T21:30:48.704Z,1023.82
2022-11-10T21:31:48.691Z,1023.78
2022-11-10T21:32:48.700Z,1023.78
2022-11-10T21:33:48.672Z,1023.74
2022-11-10T21:34:48.670Z,1023.70
2022-11-10T21:35:48.647Z,1023.74
2022-11-10T21:36:48.649Z,1023.72
2022-11-10T21:37:48.637Z,1023.79
2022-11-10T21:38:48.735Z,1023.68
2022-11-10T21:39:48.606Z,1023.71
2022-11-10T21:40:48.632Z,1023.68
2022-11-10T21:41:48.581Z,1023.69
2022-11-10T21:42:48.576Z,1023.68
2022-11-10T21:43:48.591Z,1023.68
2022-11-10T21:44:48.561Z,1023.58
2022-11-10T21:45:48.555Z,1023.60
2022-11-10T21:46:48.535Z,1023.60
2022-11-10T21:47:48.545Z,1023.63
2022-11-10T21:48:48.511Z,1023.74
2022-11-10T21:49:48.495Z,1023.72
2022-11-10T21:50:48.522Z,1023.71
2022-11-10T21:51:48.470Z,1023.75
2022-11-10T21:52:48.499Z,1023.71
2022-11-10T21:53:48.469Z,1023.68
2022-11-10T21:54:48.565Z,1023.68
2022-11-10T21:55:48.441Z,1023.59
2022-11-10T21:56:48.440Z,1023.66
2022-11-10T21:57:48.415Z,1023.64
2022-11-10T21:58:48.446Z,1023.68
2022-11-10T21:59:48.431Z,1023.72
2022-11-10T22:00:48.386Z,1023.68
2022-11-10T22:01:48.488Z,1023.69
2022-11-10T22:02:48.366Z,1023.67
2022-11-10T22:03:48.357Z,1023.74
2022-11-10T22:04:48.340Z,1023.71
2022-11-10T22:05:48.380Z,1023.77
2022-11-10T22:06:48.366Z,1023.80
2022-11-10T22:07:48.320Z,1023.78
2022-11-10T22:08:48.303Z,1023.76
2022-11-10T22:09:48.288Z,1023.83
2022-11-10T22:10:48.395Z,1023.85
2022-11-10T22:11:48.256Z,1023.82
2022-11-10T22:12:48.288Z,1023.83
2022-11-10T22:13:48.237Z,1023.77
2022-11-10T22:14:48.234Z,1023.81
2022-11-10T22:15:48.213Z,1023.79
2022-11-10T22:16:55.854Z,1023.82
2022-11-10T22:17:56.859Z,1023.83
2022-11-10T22:18:48.287Z,1023.84
2022-11-10T22:19:48.228Z,1023.82
2022-11-10T22:20:48.165Z,1023.85
2022-11-10T22:21:48.213Z,1023.85
2022-11-10T22:22:48.172Z,1023.86
2022-11-10T22:23:48.148Z,1023.87
2022-11-10T22:24:48.143Z,1023.90
2022-11-10T22:25:48.107Z,1023.91
2022-11-10T22:26:48.213Z,1023.95
2022-11-10T22:27:48.089Z,1023.91
2022-11-10T22:28:48.103Z,1023.98
2022-11-10T22:29:55.637Z,1023.96
2022-11-10T22:30:55.681Z,1023.91
2022-11-10T22:32:58.447Z,1024.05
2022-11-10T22:33:58.427Z,1024.01
2022-11-10T22:35:08.074Z,1024.03
2022-11-10T22:35:58.408Z,1024.08
2022-11-10T22:36:58.364Z,1024.00
2022-11-10T22:37:58.346Z,1024.01
2022-11-10T22:39:03.174Z,1023.99
2022-11-10T22:39:59.360Z,1024.01
2022-11-10T22:40:58.285Z,1024.03
2022-11-10T22:41:58.389Z,1024.08
2022-11-10T22:42:58.267Z,1024.05
2022-11-10T22:43:58.256Z,1024.05
2022-11-10T22:44:58.247Z,1024.16
2022-11-10T22:45:58.250Z,1024.11
2022-11-10T22:46:58.240Z,1024.18
2022-11-10T22:47:58.215Z,1024.23
2022-11-10T22:48:58.199Z,1024.16
2022-11-10T22:49:58.189Z,1024.11
2022-11-10T22:50:58.211Z,1024.20
2022-11-10T22:51:58.185Z,1024.23
2022-11-10T22:53:05.785Z,1024.16
2022-11-10T22:53:58.223Z,1024.14
2022-11-10T22:54:58.196Z,1024.19
2022-11-10T22:55:58.151Z,1024.17
2022-11-10T22:56:58.132Z,1024.11
2022-11-10T22:57:58.235Z,1024.11
2022-11-10T22:59:00.072Z,1024.06
2022-11-10T22:59:58.087Z,1024.13
2022-11-10T23:00:58.091Z,1024.13
2022-11-10T23:01:58.137Z,1024.20
2022-11-10T23:02:58.058Z,1024.17
2022-11-10T23:03:58.053Z,1024.16
2022-11-10T23:04:58.036Z,1024.13
2022-11-10T23:05:58.034Z,1024.22
2022-11-10T23:06:58.082Z,1024.21
2022-11-10T23:07:58.004Z,1024.19
2022-11-10T23:08:57.999Z,1024.19
2022-11-10T23:09:58.000Z,1024.22
2022-11-10T23:10:57.987Z,1024.20
2022-11-10T23:11:57.972Z,1024.25
2022-11-10T23:12:57.948Z,1024.25
2022-11-10T23:13:58.058Z,1024.23
2022-11-10T23:14:57.944Z,1024.29
2022-11-10T23:15:57.917Z,1024.28
2022-11-10T23:16:57.914Z,1024.34
2022-11-10T23:18:01.184Z,1024.39
2022-11-10T23:18:58.906Z,1024.40
2022-11-10T23:19:57.876Z,1024.33
2022-11-10T23:20:57.873Z,1024.36
2022-11-10T23:22:05.492Z,1024.33
2022-11-10T23:22:57.902Z,1024.33